createdAt,value
2023-02-03T00:02:15.645Z,6.60
2023-02-03T00:04:43.021Z,5.28
2023-02-03T00:07:14.197Z,7.80
2023-02-03T00:09:42.028Z,4.72
2023-02-03T00:12:09.759Z,5.68
2023-02-03T00:14:38.134Z,8.00
2023-02-03T00:19:33.340Z,7.72
2023-02-03T00:22:01.213Z,8.48
2023-02-03T00:24:28.982Z,7.55
2023-02-03T00:26:56.375Z,8.27
2023-02-03T00:29:26.064Z,9.03
2023-02-03T00:31:54.364Z,8.18
2023-02-03T00:36:49.490Z,13.02
2023-02-03T00:39:17.013Z,8.52
2023-02-03T00:41:44.572Z,7.82
2023-02-03T00:44:11.879Z,5.65
2023-02-03T00:46:39.747Z,6.50
2023-02-03T00:49:07.913Z,5.70
2023-02-03T00:51:35.857Z,6.60
2023-02-03T00:54:03.254Z,6.68
2023-02-03T00:56:30.741Z,4.50
2023-02-03T00:58:58.405Z,9.38
2023-02-03T01:01:25.727Z,6.05
2023-02-03T01:03:56.271Z,7.60
2023-02-03T01:06:24.354Z,8.50
2023-02-03T01:08:51.998Z,5.55
2023-02-03T01:11:27.235Z,7.25
2023-02-03T01:13:56.966Z,9.00
2023-02-03T01:16:27.682Z,6.93
2023-02-03T01:18:56.788Z,6.30
2023-02-03T01:21:26.655Z,5.35
2023-02-03T01:23:55.142Z,10.18
2023-02-03T01:26:24.469Z,9.00
2023-02-03T01:28:59.277Z,5.93
2023-02-03T01:31:31.796Z,8.32
2023-02-03T01:33:59.779Z,6.88
2023-02-03T01:36:30.929Z,5.80
2023-02-03T01:38:58.564Z,6.00
2023-02-03T01:41:30.962Z,10.48
2023-02-03T01:44:00.764Z,10.57
2023-02-03T01:46:35.262Z,12.43
2023-02-03T01:49:22.581Z,11.23
2023-02-03T01:51:50.897Z,7.65
2023-02-03T01:57:02.042Z,10.48
2023-02-03T01:59:31.809Z,9.95
2023-02-03T02:02:00.571Z,7.60
2023-02-03T02:04:58.207Z,11.98
2023-02-03T02:07:26.157Z,7.53
2023-02-03T02:09:54.930Z,14.55
2023-02-03T02:12:22.306Z,8.60
2023-02-03T02:14:49.777Z,9.33
2023-02-03T02:18:05.057Z,9.63
2023-02-03T02:21:06.895Z,9.68
2023-02-03T02:24:11.993Z,11.15
2023-02-03T02:27:28.944Z,7.35
2023-02-03T02:30:28.762Z,7.68
2023-02-03T02:33:23.905Z,11.20
2023-02-03T02:36:30.542Z,10.30
2023-02-03T02:39:13.186Z,11.30
2023-02-03T02:41:52.556Z,12.13
2023-02-03T02:44:44.155Z,10.10
2023-02-03T02:47:22.668Z,10.30
2023-02-03T02:50:03.829Z,13.25
2023-02-03T02:52:37.809Z,8.88
2023-02-03T02:55:30.731Z,13.18
2023-02-03T02:58:11.175Z,11.25
2023-02-03T03:00:41.192Z,10.93
2023-02-03T03:03:21.908Z,11.15
2023-02-03T03:06:16.290Z,10.85
2023-02-03T03:09:15.243Z,12.25
2023-02-03T03:12:01.562Z,11.88
2023-02-03T03:14:32.357Z,11.95
2023-02-03T03:17:09.408Z,8.68
2023-02-03T03:19:44.977Z,11.43
2023-02-03T03:22:18.406Z,12.13
2023-02-03T03:24:56.291Z,10.77
2023-02-03T03:27:29.995Z,13.38
2023-02-03T03:30:14.287Z,12.43
2023-02-03T03:32:41.843Z,9.07
2023-02-03T03:35:09.822Z,15.00
2023-02-03T03:38:21.899Z,13.23
2023-02-03T03:41:26.735Z,10.93
2023-02-03T03:44:01.727Z,11.40
2023-02-03T03:46:40.156Z,12.75
2023-02-03T03:49:11.816Z,9.38
2023-02-03T03:51:56.567Z,9.27
2023-02-03T03:54:26.582Z,12.02
2023-02-03T03:57:01.000Z,11.23
2023-02-03T03:59:34.438Z,8.50
2023-02-03T04:02:05.083Z,11.75
2023-02-03T04:04:37.793Z,12.57
2023-02-03T04:07:05.346Z,10.10
2023-02-03T04:09:36.503Z,13.73
2023-02-03T04:12:06.436Z,7.90
2023-02-03T04:14:39.813Z,8.82
2023-02-03T04:17:07.213Z,9.10
2023-02-03T04:19:34.444Z,10.60
2023-02-03T04:22:01.749Z,10.05
2023-02-03T04:24:29.025Z,10.15
2023-02-03T04:26:56.314Z,7.30
2023-02-03T04:29:25.279Z,10.00
2023-02-03T04:31:52.604Z,11.13
2023-02-03T04:34:19.874Z,9.77
2023-02-03T04:36:47.173Z,12.25
2023-02-03T04:39:14.514Z,7.72
2023-02-03T04:41:41.908Z,8.48
2023-02-03T04:44:09.454Z,12.57
2023-02-03T04:46:36.753Z,8.80
2023-02-03T04:49:04.122Z,8.68
2023-02-03T04:51:31.485Z,6.27
2023-02-03T04:53:58.767Z,6.75
2023-02-03T04:56:26.111Z,8.13
2023-02-03T04:58:53.368Z,10.60
2023-02-03T05:01:20.679Z,10.02
2023-02-03T05:03:48.051Z,8.80
2023-02-03T05:06:15.312Z,12.10
2023-02-03T05:08:42.821Z,8.65
2023-02-03T05:11:10.170Z,10.97
2023-02-03T05:13:37.504Z,9.38
2023-02-03T05:16:05.546Z,13.20
2023-02-03T05:18:34.038Z,13.00
2023-02-03T05:21:01.460Z,12.73
2023-02-03T05:23:28.753Z,15.03
2023-02-03T05:25:56.096Z,10.77
2023-02-03T05:28:23.578Z,16.05
2023-02-03T05:30:51.069Z,14.50
2023-02-03T05:33:18.524Z,12.13
2023-02-03T05:35:45.937Z,15.17
2023-02-03T05:38:13.388Z,14.00
2023-02-03T05:40:59.544Z,26.70
2023-02-03T05:43:28.594Z,17.60
2023-02-03T05:46:00.693Z,11.77
2023-02-03T05:48:28.580Z,23.15
2023-02-03T05:50:56.172Z,19.45
2023-02-03T05:53:23.966Z,16.73
2023-02-03T05:55:51.294Z,19.50
2023-02-03T05:58:18.899Z,21.90
2023-02-03T06:00:46.522Z,14.77
2023-02-03T06:03:14.066Z,21.13
2023-02-03T06:05:41.542Z,18.23
2023-02-03T06:08:10.512Z,14.70
2023-02-03T06:10:37.847Z,15.32
2023-02-03T06:13:14.665Z,16.40
2023-02-03T06:15:42.928Z,14.13
2023-02-03T06:18:10.416Z,21.17
2023-02-03T06:20:37.687Z,25.45
2023-02-03T06:23:05.047Z,23.73
2023-02-03T06:25:32.832Z,14.53
2023-02-03T06:28:01.588Z,18.10
2023-02-03T06:30:29.339Z,17.05
2023-02-03T06:32:57.121Z,19.92
2023-02-03T06:35:24.551Z,19.75
2023-02-03T06:37:51.841Z,14.10
2023-02-03T06:40:19.422Z,18.55
2023-02-03T06:42:48.252Z,21.60
2023-02-03T06:45:15.965Z,20.63
2023-02-03T06:47:45.241Z,15.90
2023-02-03T06:50:15.511Z,19.25
2023-02-03T06:52:43.413Z,17.38
2023-02-03T06:55:11.189Z,15.60
2023-02-03T06:57:45.551Z,27.98
2023-02-03T07:00:18.445Z,40.75
2023-02-03T07:02:47.115Z,21.40
2023-02-03T07:05:14.633Z,16.00
2023-02-03T07:07:42.191Z,24.48
2023-02-03T07:10:10.381Z,16.58
2023-02-03T07:12:37.789Z,16.27
2023-02-03T07:15:05.980Z,14.37
2023-02-03T07:17:33.334Z,16.45
2023-02-03T07:20:00.633Z,19.97
2023-02-03T07:22:28.007Z,13.88
2023-02-03T07:24:55.437Z,14.30
2023-02-03T07:27:24.918Z,20.52
2023-02-03T07:29:52.130Z,20.58
2023-02-03T07:32:19.404Z,7.50
2023-02-03T07:34:46.639Z,11.88
2023-02-03T07:37:13.841Z,9.35
2023-02-03T07:39:41.182Z,8.10
2023-02-03T07:42:08.396Z,8.32
2023-02-03T07:44:35.634Z,8.90
2023-02-03T07:47:02.916Z,12.02
2023-02-03T07:49:30.220Z,5.82
2023-02-03T07:51:57.549Z,7.18
2023-02-03T07:54:25.006Z,4.85
2023-02-03T07:56:52.415Z,7.83
2023-02-03T07:59:19.817Z,7.97
2023-02-03T08:01:47.225Z,2.47
2023-02-03T08:04:16.627Z,2.70
2023-02-03T08:06:44.327Z,4.18
2023-02-03T08:09:11.642Z,4.35
2023-02-03T08:11:39.036Z,3.35
2023-02-03T08:14:06.352Z,2.30
2023-02-03T08:16:33.929Z,4.60
2023-02-03T08:19:01.197Z,7.50
2023-02-03T08:21:28.469Z,9.60
2023-02-03T08:23:55.864Z,9.23
2023-02-03T08:26:23.217Z,3.83
2023-02-03T08:28:50.993Z,4.57
2023-02-03T08:31:18.728Z,4.25
2023-02-03T08:33:46.198Z,7.72
2023-02-03T08:36:14.044Z,5.57
2023-02-03T08:38:41.981Z,2.35
2023-02-03T08:41:12.958Z,4.30
2023-02-03T08:43:40.734Z,6.15
2023-02-03T08:46:10.935Z,1.92
2023-02-03T08:48:38.548Z,3.38
2023-02-03T08:51:14.842Z,5.40
2023-02-03T08:53:42.254Z,9.85
2023-02-03T08:56:12.491Z,4.20
2023-02-03T08:58:40.340Z,5.88
2023-02-03T09:01:14.851Z,5.28
2023-02-03T09:03:42.992Z,7.50
2023-02-03T09:06:16.745Z,8.90
2023-02-03T09:08:46.236Z,5.65
2023-02-03T09:11:17.195Z,9.00
2023-02-03T09:13:46.104Z,6.35
2023-02-03T09:16:17.547Z,5.75
2023-02-03T09:18:48.637Z,3.15
2023-02-03T09:21:31.639Z,6.00
2023-02-03T09:24:03.367Z,7.10
2023-02-03T09:26:30.750Z,6.07
2023-02-03T09:28:58.005Z,6.03
2023-02-03T09:31:25.368Z,3.72
2023-02-03T09:33:52.601Z,14.30
2023-02-03T09:36:19.969Z,7.60
2023-02-03T09:38:47.318Z,4.85
2023-02-03T09:41:51.345Z,4.05
2023-02-03T09:44:26.566Z,15.68
2023-02-03T09:47:11.083Z,9.82
2023-02-03T09:49:47.417Z,3.20
2023-02-03T09:52:19.482Z,13.27
2023-02-03T09:54:58.755Z,3.47
2023-02-03T09:57:30.028Z,6.15
2023-02-03T10:00:02.406Z,5.43
2023-02-03T10:02:52.993Z,10.07
2023-02-03T10:05:23.268Z,40.30
2023-02-03T10:08:10.007Z,19.13
2023-02-03T10:11:09.644Z,8.65
2023-02-03T10:13:52.580Z,8.77
2023-02-03T10:16:42.372Z,5.10
2023-02-03T10:19:21.438Z,17.90
2023-02-03T10:22:00.216Z,9.07
2023-02-03T10:24:51.085Z,10.65
2023-02-03T10:27:23.064Z,7.90
2023-02-03T10:30:24.312Z,37.03
2023-02-03T10:33:22.218Z,26.90
2023-02-03T10:38:42.184Z,12.18
2023-02-03T10:41:09.770Z,14.30
2023-02-03T10:43:53.090Z,12.82
2023-02-03T10:46:38.019Z,10.88
2023-02-03T10:49:05.624Z,7.55
2023-02-03T10:51:57.959Z,11.43
2023-02-03T10:54:34.827Z,9.43
2023-02-03T10:57:14.952Z,5.57
2023-02-03T10:59:45.777Z,3.47
2023-02-03T11:02:30.959Z,5.20
2023-02-03T11:05:20.419Z,2.22
2023-02-03T11:07:48.651Z,1.77
2023-02-03T11:10:37.900Z,3.70
2023-02-03T11:13:19.512Z,1.00
2023-02-03T11:16:01.301Z,1.55
2023-02-03T11:18:52.484Z,1.05
2023-02-03T11:21:25.239Z,1.77
2023-02-03T11:24:05.381Z,1.70
2023-02-03T11:26:46.769Z,0.35
2023-02-03T11:29:23.905Z,1.67
2023-02-03T11:31:55.428Z,0.40
2023-02-03T11:34:29.828Z,1.10
2023-02-03T11:36:57.596Z,1.27
2023-02-03T11:39:37.411Z,3.25
2023-02-03T11:42:25.359Z,1.90
2023-02-03T11:45:14.531Z,2.08
2023-02-03T11:48:13.107Z,0.30
2023-02-03T11:50:58.517Z,1.40
2023-02-03T11:53:57.716Z,1.55
2023-02-03T11:56:56.947Z,0.50
2023-02-03T11:59:27.195Z,2.42
2023-02-03T12:02:06.688Z,1.48
2023-02-03T12:04:42.956Z,2.53
2023-02-03T12:07:31.196Z,0.95
2023-02-03T12:13:13.686Z,3.13
2023-02-03T12:16:27.887Z,0.90
2023-02-03T12:19:42.191Z,0.95
2023-02-03T12:22:48.696Z,1.63
2023-02-03T12:25:45.676Z,1.13
2023-02-03T12:28:37.726Z,3.80
2023-02-03T12:31:37.817Z,0.80
2023-02-03T12:34:38.254Z,0.82
2023-02-03T12:37:29.353Z,1.50
2023-02-03T12:40:04.831Z,1.92
2023-02-03T12:42:57.785Z,2.90
2023-02-03T12:45:38.348Z,8.02
2023-02-03T12:48:19.275Z,1.38
2023-02-03T12:51:00.844Z,1.25
2023-02-03T12:53:36.700Z,2.72
2023-02-03T12:56:20.161Z,1.95
2023-02-03T12:59:05.284Z,2.35
2023-02-03T13:01:40.524Z,3.30
2023-02-03T13:04:30.182Z,1.95
2023-02-03T13:07:25.946Z,47.90
2023-02-03T13:10:05.733Z,3.85
2023-02-03T13:12:42.938Z,4.78
2023-02-03T13:15:34.557Z,1.15
2023-02-03T13:18:26.473Z,1.38
2023-02-03T13:20:54.632Z,2.28
2023-02-03T13:23:24.056Z,1.50
2023-02-03T13:26:25.433Z,2.28
2023-02-03T13:29:20.816Z,10.20
2023-02-03T13:32:18.066Z,3.40
2023-02-03T13:34:57.237Z,3.75
2023-02-03T13:38:02.349Z,2.22
2023-02-03T13:40:40.631Z,1.10
2023-02-03T13:46:11.088Z,2.13
2023-02-03T13:48:38.632Z,2.63
2023-02-03T13:51:16.234Z,3.43
2023-02-03T13:53:47.491Z,1.85
2023-02-03T13:56:28.719Z,3.75
2023-02-03T13:59:42.088Z,1.83
2023-02-03T14:02:26.906Z,0.98
2023-02-03T14:04:57.422Z,2.25
2023-02-03T14:07:38.824Z,1.15
2023-02-03T14:10:16.412Z,4.03
2023-02-03T14:12:52.529Z,2.20
2023-02-03T14:15:26.480Z,2.90
2023-02-03T14:17:58.241Z,10.07
2023-02-03T14:20:41.560Z,4.00
2023-02-03T14:23:23.467Z,3.03
2023-02-03T14:25:57.826Z,1.13
2023-02-03T14:28:47.457Z,6.32
2023-02-03T14:31:21.138Z,4.30
2023-02-03T14:33:48.478Z,5.53
2023-02-03T14:36:35.109Z,5.15
2023-02-03T14:39:55.382Z,2.28
2023-02-03T14:42:51.846Z,2.67
2023-02-03T14:45:32.677Z,1.08
2023-02-03T14:48:11.520Z,0.63
2023-02-03T14:51:22.461Z,3.42
2023-02-03T14:54:41.400Z,1.08
2023-02-03T14:57:25.396Z,2.65
2023-02-03T15:00:01.705Z,5.63
2023-02-03T15:02:32.099Z,2.88
2023-02-03T15:05:14.780Z,1.38
2023-02-03T15:07:49.371Z,2.10
2023-02-03T15:10:23.504Z,2.55
2023-02-03T15:12:57.102Z,4.55
2023-02-03T15:15:32.193Z,7.07
2023-02-03T15:18:21.383Z,0.95
2023-02-03T15:20:54.473Z,1.70
2023-02-03T15:23:25.868Z,1.10
2023-02-03T15:26:02.318Z,30.83
2023-02-03T15:28:30.770Z,1.15
2023-02-03T15:31:19.901Z,4.70
2023-02-03T15:33:50.153Z,1.00
2023-02-03T15:36:41.974Z,3.88
2023-02-03T15:39:39.882Z,4.28
2023-02-03T15:42:20.767Z,1.50
2023-02-03T15:45:26.792Z,2.65
2023-02-03T15:48:15.016Z,1.40
2023-02-03T15:53:45.330Z,2.22
2023-02-03T15:56:38.183Z,1.15
2023-02-03T15:59:19.428Z,2.08
2023-02-03T16:01:47.077Z,1.33
2023-02-03T16:04:14.843Z,0.70
2023-02-03T16:06:48.822Z,1.33
2023-02-03T16:09:39.086Z,1.88
2023-02-03T16:12:18.559Z,2.15
2023-02-03T16:14:46.650Z,2.50
2023-02-03T16:17:35.571Z,3.20
2023-02-03T16:20:12.153Z,4.95
2023-02-03T16:23:00.075Z,1.83
2023-02-03T16:25:32.153Z,1.15
2023-02-03T16:28:32.060Z,3.42
2023-02-03T16:31:35.460Z,2.70
2023-02-03T16:34:35.449Z,3.25
2023-02-03T16:37:39.268Z,1.80
2023-02-03T16:40:25.444Z,1.15
2023-02-03T16:43:11.464Z,2.25
2023-02-03T16:45:57.755Z,1.92
2023-02-03T16:48:44.044Z,1.58
2023-02-03T16:51:17.445Z,2.67
2023-02-03T16:53:48.481Z,1.08
2023-02-03T16:56:18.623Z,1.10
2023-02-03T16:58:46.017Z,5.25
2023-02-03T17:01:14.598Z,1.50
2023-02-03T17:03:41.964Z,0.68
2023-02-03T17:06:12.111Z,0.70
2023-02-03T17:08:41.576Z,1.13
2023-02-03T17:11:18.308Z,1.05
2023-02-03T17:13:47.328Z,0.93
2023-02-03T17:16:22.964Z,2.63
2023-02-03T17:18:50.768Z,3.40
2023-02-03T17:21:23.594Z,0.93
2023-02-03T17:23:51.376Z,0.95
2023-02-03T17:26:19.368Z,2.72
2023-02-03T17:28:46.722Z,0.85
2023-02-03T17:31:17.919Z,0.98
2023-02-03T17:33:45.950Z,1.10
2023-02-03T17:36:18.084Z,3.17
2023-02-03T17:55:21.158Z,1.52
2023-02-03T17:57:48.415Z,2.87
2023-02-03T18:00:16.228Z,2.15
2023-02-03T18:02:43.812Z,1.10
2023-02-03T18:05:11.543Z,1.05
2023-02-03T18:07:38.871Z,2.25
2023-02-03T18:10:08.898Z,1.65
2023-02-03T18:12:36.298Z,3.38
2023-02-03T18:15:04.023Z,2.40
2023-02-03T18:17:31.278Z,1.27
2023-02-03T18:20:00.602Z,1.05
2023-02-03T18:22:28.008Z,1.00
2023-02-03T18:24:55.694Z,1.00
2023-02-03T18:27:23.131Z,0.52
2023-02-03T18:29:50.502Z,0.47
2023-02-03T18:32:17.869Z,1.00
2023-02-03T18:34:45.273Z,3.40
2023-02-03T18:37:12.681Z,2.00
2023-02-03T18:39:40.107Z,1.73
2023-02-03T18:42:08.885Z,1.58
2023-02-03T18:44:37.768Z,1.13
2023-02-03T18:47:08.418Z,2.53
2023-02-03T18:49:40.175Z,1.85
2023-02-03T18:52:07.882Z,0.75
2023-02-03T18:54:35.881Z,1.80
2023-02-03T18:57:04.498Z,0.90
2023-02-03T18:59:32.123Z,2.35
2023-02-03T19:01:59.628Z,1.90
2023-02-03T19:04:26.858Z,5.20
2023-02-03T19:06:54.136Z,1.45
2023-02-03T19:09:23.748Z,3.85
2023-02-03T19:11:51.518Z,3.30
2023-02-03T19:14:19.502Z,3.67
2023-02-03T19:16:50.487Z,6.05
2023-02-03T19:19:18.097Z,5.15
2023-02-03T19:21:48.742Z,5.18
2023-02-03T19:24:16.745Z,2.63
2023-02-03T19:26:44.243Z,12.52
2023-02-03T19:29:11.620Z,5.77
2023-02-03T19:31:39.217Z,5.40
2023-02-03T19:34:06.860Z,10.07
2023-02-03T19:36:34.778Z,4.57
2023-02-03T19:39:02.198Z,9.18
2023-02-03T19:41:30.970Z,8.40
2023-02-03T19:44:14.559Z,9.38
2023-02-03T19:46:42.325Z,4.90
2023-02-03T19:49:13.208Z,7.40
2023-02-03T19:51:42.798Z,9.57
2023-02-03T19:54:19.840Z,7.85
2023-02-03T19:56:47.329Z,4.82
2023-02-03T19:59:14.765Z,9.20
2023-02-03T20:01:42.492Z,5.37
2023-02-03T20:04:10.353Z,9.95
2023-02-03T20:06:38.543Z,8.00
2023-02-03T20:09:06.739Z,6.25
2023-02-03T20:11:34.270Z,12.13
2023-02-03T20:14:01.585Z,6.18
2023-02-03T20:16:28.950Z,4.65
2023-02-03T20:18:56.491Z,6.05
2023-02-03T20:21:23.770Z,13.23
2023-02-03T20:23:51.025Z,9.43
2023-02-03T20:26:18.354Z,4.78
2023-02-03T20:28:47.387Z,5.82
2023-02-03T20:31:14.867Z,6.13
2023-02-03T20:33:42.212Z,8.03
2023-02-03T20:36:11.485Z,5.57
2023-02-03T20:38:38.871Z,9.15
2023-02-03T20:41:12.081Z,11.25
2023-02-03T20:43:39.551Z,5.82
2023-02-03T20:46:15.104Z,6.77
2023-02-03T20:48:42.687Z,9.10
2023-02-03T20:51:14.993Z,3.97
2023-02-03T20:53:44.248Z,3.72
2023-02-03T20:56:18.398Z,7.43
2023-02-03T20:58:45.976Z,9.80
2023-02-03T21:01:22.841Z,5.65
2023-02-03T21:04:09.442Z,7.00
2023-02-03T21:06:37.287Z,4.75
2023-02-03T21:09:20.980Z,4.30
2023-02-03T21:11:48.382Z,3.22
2023-02-03T21:14:36.853Z,4.25
2023-02-03T21:17:14.646Z,4.00
2023-02-03T21:19:42.435Z,3.67
2023-02-03T21:22:32.654Z,2.83
2023-02-03T21:25:03.382Z,4.57
2023-02-03T21:27:35.101Z,3.92
2023-02-03T21:30:24.287Z,7.75
2023-02-03T21:32:51.558Z,2.90
2023-02-03T21:35:37.795Z,3.30
2023-02-03T21:38:28.072Z,2.88
2023-02-03T21:40:55.352Z,4.82
2023-02-03T21:43:24.667Z,4.22
2023-02-03T21:45:52.193Z,3.97
2023-02-03T21:48:40.439Z,1.85
2023-02-03T21:53:55.478Z,3.05
2023-02-03T21:56:38.519Z,3.10
2023-02-03T21:59:28.477Z,4.28
2023-02-03T22:01:58.590Z,3.50
2023-02-03T22:04:33.353Z,3.08
2023-02-03T22:07:00.697Z,4.20
2023-02-03T22:09:28.087Z,2.28
2023-02-03T22:11:55.492Z,3.13
2023-02-03T22:14:23.079Z,2.45
2023-02-03T22:16:50.895Z,2.80
2023-02-03T22:19:18.249Z,5.30
2023-02-03T22:21:47.743Z,4.53
2023-02-03T22:24:15.029Z,6.25
2023-02-03T22:26:42.295Z,8.38
2023-02-03T22:29:09.679Z,3.95
2023-02-03T22:31:37.050Z,7.70
2023-02-03T22:34:04.510Z,2.43
2023-02-03T22:36:31.796Z,8.75
2023-02-03T22:38:59.186Z,4.05
2023-02-03T22:41:26.483Z,9.38
2023-02-03T22:43:53.756Z,6.43
2023-02-03T22:46:21.034Z,8.73
2023-02-03T22:48:48.291Z,6.97
2023-02-03T22:51:15.576Z,8.77
2023-02-03T22:53:42.914Z,7.28
2023-02-03T22:56:10.176Z,7.80
2023-02-03T22:58:37.530Z,5.38
2023-02-03T23:01:05.006Z,4.00
2023-02-03T23:03:32.840Z,5.43
2023-02-03T23:06:00.312Z,9.20
2023-02-03T23:08:27.661Z,9.63
2023-02-03T23:10:55.898Z,8.23
2023-02-03T23:13:23.796Z,8.48
2023-02-03T23:15:51.744Z,9.15
2023-02-03T23:18:19.027Z,9.32
2023-02-03T23:20:46.377Z,9.50
2023-02-03T23:23:14.341Z,6.78
2023-02-03T23:25:41.748Z,5.28
2023-02-03T23:28:09.009Z,9.35
2023-02-03T23:30:36.383Z,9.88
2023-02-03T23:33:03.688Z,5.28
2023-02-03T23:35:46.407Z,11.48
2023-02-03T23:38:17.850Z,10.35
2023-02-03T23:40:45.474Z,6.03
2023-02-03T23:43:12.839Z,9.20
2023-02-03T23:45:41.133Z,9.27
2023-02-03T23:48:08.721Z,7.57
2023-02-03T23:50:36.264Z,6.82
2023-02-03T23:53:03.858Z,6.47
2023-02-03T23:55:31.530Z,3.93
2023-02-03T23:57:58.871Z,8.23
